createdAt,value
2018-08-09T00:00:49.958Z,21.1
2018-08-09T00:01:52.060Z,21.1
2018-08-09T00:02:54.146Z,21
2018-08-09T00:03:56.247Z,21
2018-08-09T00:04:58.346Z,20.9
2018-08-09T00:06:00.738Z,21
2018-08-09T00:07:03.400Z,21
2018-08-09T00:08:05.507Z,21
2018-08-09T00:09:07.899Z,20.9
2018-08-09T00:10:09.994Z,20.9
2018-08-09T00:11:12.105Z,20.9
2018-08-09T00:12:14.193Z,20.9
2018-08-09T00:13:16.294Z,20.9
2018-08-09T00:14:18.383Z,20.9
2018-08-09T00:15:20.494Z,20.9
2018-08-09T00:16:22.580Z,20.9
2018-08-09T00:17:24.972Z,20.8
2018-08-09T00:18:27.369Z,20.8
2018-08-09T00:19:29.460Z,20.8
2018-08-09T00:20:31.859Z,20.8
2018-08-09T00:21:33.964Z,20.8
2018-08-09T00:22:36.058Z,20.6
2018-08-09T00:23:39.134Z,20.7
2018-08-09T00:24:41.247Z,20.7
2018-08-09T00:25:43.636Z,20.6
2018-08-09T00:26:46.032Z,20.6
2018-08-09T00:27:48.129Z,20.6
2018-08-09T00:28:50.217Z,20.7
2018-08-09T00:29:52.315Z,20.7
2018-08-09T00:30:54.809Z,20.7
2018-08-09T00:31:56.893Z,20.7
2018-08-09T00:32:58.997Z,20.6
2018-08-09T00:34:01.098Z,20.6
2018-08-09T00:35:03.197Z,20.6
2018-08-09T00:36:05.599Z,20.5
2018-08-09T00:37:07.690Z,20.5
2018-08-09T00:38:09.788Z,20.5
2018-08-09T00:39:11.874Z,20.5
2018-08-09T00:40:14.273Z,20.4
2018-08-09T00:41:16.358Z,20.3
2018-08-09T00:42:18.457Z,20.3
2018-08-09T00:43:20.573Z,20.3
2018-08-09T00:44:22.641Z,20.2
2018-08-09T00:45:24.749Z,20.2
2018-08-09T00:46:26.849Z,20.2
2018-08-09T00:47:29.340Z,20.2
2018-08-09T00:48:31.425Z,20.1
2018-08-09T00:49:33.845Z,20.1
2018-08-09T00:50:35.934Z,20.1
2018-08-09T00:51:38.028Z,20
2018-08-09T00:52:40.138Z,20
2018-08-09T00:53:42.228Z,20
2018-08-09T00:54:44.325Z,19.9
2018-08-09T00:55:46.434Z,19.9
2018-08-09T00:56:48.843Z,19.8
2018-08-09T00:57:50.929Z,19.8
2018-08-09T00:58:53.029Z,19.8
2018-08-09T00:59:55.513Z,19.8
2018-08-09T01:00:57.611Z,19.8
2018-08-09T01:01:59.720Z,19.8
2018-08-09T01:03:01.819Z,19.7
2018-08-09T01:04:03.905Z,19.8
2018-08-09T01:05:06.411Z,19.7
2018-08-09T01:06:08.790Z,19.7
2018-08-09T01:07:10.888Z,19.7
2018-08-09T01:08:12.976Z,19.7
2018-08-09T01:09:15.088Z,19.7
2018-08-09T01:10:17.182Z,19.6
2018-08-09T01:11:19.282Z,19.6
2018-08-09T01:12:21.375Z,19.6
2018-08-09T01:13:23.480Z,19.6
2018-08-09T01:14:25.584Z,19.5
2018-08-09T01:15:27.955Z,19.5
2018-08-09T01:16:30.059Z,19.5
2018-08-09T01:17:32.141Z,19.5
2018-08-09T01:18:34.250Z,19.5
2018-08-09T01:19:36.348Z,19.5
2018-08-09T01:20:38.448Z,19.5
2018-08-09T01:21:40.527Z,19.5
2018-08-09T01:22:42.641Z,19.5
2018-08-09T01:23:44.731Z,19.4
2018-08-09T01:24:46.824Z,19.4
2018-08-09T01:25:48.934Z,19.4
2018-08-09T01:26:51.018Z,19.4
2018-08-09T01:27:53.406Z,19.4
2018-08-09T01:28:55.513Z,19.3
2018-08-09T01:29:57.608Z,19.3
2018-08-09T01:30:59.693Z,19.2
2018-08-09T01:32:02.086Z,19.3
2018-08-09T01:33:04.497Z,19.2
2018-08-09T01:34:06.592Z,19.2
2018-08-09T01:35:09.097Z,19.2
2018-08-09T01:36:11.191Z,19.2
2018-08-09T01:37:13.570Z,19.2
2018-08-09T01:38:15.973Z,19.1
2018-08-09T01:39:18.059Z,19.1
2018-08-09T01:40:20.154Z,19.1
2018-08-09T01:41:22.548Z,19.1
2018-08-09T01:42:24.632Z,19.1
2018-08-09T01:43:27.019Z,19.1
2018-08-09T01:44:29.114Z,19
2018-08-09T01:45:31.222Z,19
2018-08-09T01:46:33.314Z,19.1
2018-08-09T01:47:35.400Z,19
2018-08-09T01:48:37.934Z,19
2018-08-09T01:49:40.329Z,19
2018-08-09T01:50:42.410Z,19
2018-08-09T01:51:44.526Z,19
2018-08-09T01:52:46.622Z,19
2018-08-09T01:53:48.720Z,18.9
2018-08-09T01:54:50.806Z,18.9
2018-08-09T01:55:53.206Z,18.9
2018-08-09T01:56:55.613Z,18.9
2018-08-09T01:57:58.085Z,18.9
2018-08-09T01:59:00.497Z,18.9
2018-08-09T02:00:02.970Z,18.9
2018-08-09T02:01:05.067Z,18.9
2018-08-09T02:02:07.558Z,18.9
2018-08-09T02:03:09.651Z,18.8
2018-08-09T02:04:11.732Z,18.8
2018-08-09T02:05:13.835Z,18.8
2018-08-09T02:06:16.238Z,18.8
2018-08-09T02:07:18.309Z,18.7
2018-08-09T02:08:20.414Z,18.7
2018-08-09T02:09:22.512Z,18.7
2018-08-09T02:10:24.598Z,18.7
2018-08-09T02:11:26.704Z,18.7
2018-08-09T02:12:28.790Z,18.7
2018-08-09T02:13:30.885Z,18.7
2018-08-09T02:14:32.987Z,18.7
2018-08-09T02:15:35.068Z,18.7
2018-08-09T02:16:37.556Z,18.7
2018-08-09T02:17:39.653Z,18.6
2018-08-09T02:18:41.755Z,18.6
2018-08-09T02:19:44.127Z,18.6
2018-08-09T02:20:46.235Z,18.6
2018-08-09T02:21:48.333Z,18.6
2018-08-09T02:22:51.011Z,18.6
2018-08-09T02:23:53.104Z,18.6
2018-08-09T02:24:55.214Z,18.6
2018-08-09T02:25:57.309Z,18.6
2018-08-09T02:26:59.414Z,18.6
2018-08-09T02:28:01.806Z,18.5
2018-08-09T02:29:03.912Z,18.5
2018-08-09T02:30:06.299Z,18.5
2018-08-09T02:31:08.703Z,18.6
2018-08-09T02:32:11.118Z,18.5
2018-08-09T02:33:13.201Z,18.5
2018-08-09T02:34:15.612Z,18.5
2018-08-09T02:35:17.720Z,18.5
2018-08-09T02:36:19.812Z,18.4
2018-08-09T02:37:22.982Z,18.4
2018-08-09T02:38:25.081Z,18.4
2018-08-09T02:39:27.561Z,18.4
2018-08-09T02:40:29.666Z,18.4
2018-08-09T02:41:31.762Z,18.4
2018-08-09T02:42:33.859Z,18.4
2018-08-09T02:43:35.949Z,18.4
2018-08-09T02:44:38.057Z,18.4
2018-08-09T02:45:40.439Z,18.4
2018-08-09T02:46:42.577Z,18.4
2018-08-09T02:47:44.935Z,18.3
2018-08-09T02:48:47.013Z,18.3
2018-08-09T02:49:49.406Z,18.3
2018-08-09T02:50:51.508Z,18.3
2018-08-09T02:51:53.621Z,18.3
2018-08-09T02:52:55.991Z,18.3
2018-08-09T02:53:58.777Z,18.3
2018-08-09T02:55:01.161Z,18.3
2018-08-09T02:56:03.573Z,18.2
2018-08-09T02:57:05.680Z,18.2
2018-08-09T02:58:07.766Z,18.2
2018-08-09T02:59:10.253Z,18.2
2018-08-09T03:00:12.655Z,18.2
2018-08-09T03:01:15.062Z,18.2
2018-08-09T03:02:17.158Z,18.2
2018-08-09T03:03:19.260Z,18.2
2018-08-09T03:04:21.363Z,18.2
2018-08-09T03:05:23.445Z,18.2
2018-08-09T03:06:25.557Z,18.2
2018-08-09T03:07:27.654Z,18.2
2018-08-09T03:08:29.758Z,18.1
2018-08-09T03:09:31.856Z,18.1
2018-08-09T03:10:33.971Z,18.1
2018-08-09T03:11:36.064Z,18.1
2018-08-09T03:12:38.242Z,18.1
2018-08-09T03:13:40.278Z,18.1
2018-08-09T03:14:42.360Z,18.1
2018-08-09T03:15:44.457Z,18
2018-08-09T03:16:46.557Z,18
2018-08-09T03:17:49.336Z,18
2018-08-09T03:18:51.435Z,18
2018-08-09T03:19:53.529Z,18
2018-08-09T03:20:55.629Z,18
2018-08-09T03:21:58.028Z,18
2018-08-09T03:23:00.125Z,17.9
2018-08-09T03:24:02.222Z,17.9
2018-08-09T03:25:04.708Z,17.9
2018-08-09T03:26:07.108Z,17.9
2018-08-09T03:27:09.191Z,17.8
2018-08-09T03:28:11.284Z,17.9
2018-08-09T03:29:13.383Z,17.8
2018-08-09T03:30:15.480Z,17.9
2018-08-09T03:31:17.970Z,17.9
2018-08-09T03:32:20.353Z,17.9
2018-08-09T03:33:22.455Z,17.9
2018-08-09T03:34:24.924Z,17.8
2018-08-09T03:35:27.029Z,17.9
2018-08-09T03:36:29.119Z,17.8
2018-08-09T03:37:31.212Z,17.8
2018-08-09T03:38:33.996Z,17.8
2018-08-09T03:39:36.084Z,17.8
2018-08-09T03:40:38.569Z,17.7
2018-08-09T03:41:40.657Z,17.7
2018-08-09T03:42:42.749Z,17.7
2018-08-09T03:43:44.858Z,17.8
2018-08-09T03:44:46.953Z,17.8
2018-08-09T03:45:49.052Z,17.7
2018-08-09T03:46:51.149Z,17.8
2018-08-09T03:47:53.232Z,17.8
2018-08-09T03:48:55.620Z,17.7
2018-08-09T03:49:57.722Z,17.8
2018-08-09T03:50:59.801Z,17.8
2018-08-09T03:52:02.298Z,17.7
2018-08-09T03:53:04.397Z,17.7
2018-08-09T03:54:06.776Z,17.7
2018-08-09T03:55:08.881Z,17.8
2018-08-09T03:56:10.969Z,17.8
2018-08-09T03:57:13.064Z,17.8
2018-08-09T03:58:15.582Z,17.8
2018-08-09T03:59:17.626Z,17.8
2018-08-09T04:00:19.708Z,17.8
2018-08-09T04:01:21.800Z,17.8
2018-08-09T04:02:23.905Z,17.8
2018-08-09T04:03:25.988Z,17.8
2018-08-09T04:04:28.092Z,17.8
2018-08-09T04:05:30.187Z,17.8
2018-08-09T04:06:32.292Z,17.8
2018-08-09T04:07:34.371Z,17.8
2018-08-09T04:08:36.865Z,17.8
2018-08-09T04:09:38.953Z,17.8
2018-08-09T04:10:41.348Z,17.8
2018-08-09T04:11:43.510Z,17.8
2018-08-09T04:12:45.925Z,17.8
2018-08-09T04:13:48.309Z,17.8
2018-08-09T04:14:50.414Z,17.8
2018-08-09T04:15:52.801Z,17.8
2018-08-09T04:16:55.275Z,17.9
2018-08-09T04:17:57.375Z,17.8
2018-08-09T04:18:59.475Z,17.8
2018-08-09T04:20:01.566Z,17.8
2018-08-09T04:21:04.050Z,17.8
2018-08-09T04:22:06.430Z,17.8
2018-08-09T04:23:08.533Z,17.9
2018-08-09T04:24:10.616Z,17.9
2018-08-09T04:25:12.718Z,17.8
2018-08-09T04:26:14.812Z,17.9
2018-08-09T04:27:16.902Z,17.9
2018-08-09T04:28:19.014Z,17.9
2018-08-09T04:29:21.102Z,17.9
2018-08-09T04:30:23.196Z,18
2018-08-09T04:31:25.285Z,18
2018-08-09T04:32:27.393Z,18
2018-08-09T04:33:29.477Z,18.1
2018-08-09T04:34:31.575Z,18.1
2018-08-09T04:35:33.675Z,18
2018-08-09T04:36:35.761Z,18
2018-08-09T04:37:38.542Z,18
2018-08-09T04:38:40.638Z,18
2018-08-09T04:39:43.055Z,18
2018-08-09T04:40:45.138Z,18
2018-08-09T04:41:47.242Z,18.1
2018-08-09T04:42:49.334Z,18
2018-08-09T04:43:51.424Z,18.1
2018-08-09T04:44:53.535Z,18.1
2018-08-09T04:45:55.916Z,18.1
2018-08-09T04:46:58.010Z,18.1
2018-08-09T04:48:00.113Z,18.1
2018-08-09T04:49:02.209Z,18.2
2018-08-09T04:50:04.296Z,18.2
2018-08-09T04:51:06.393Z,18.2
2018-08-09T04:52:08.483Z,18.2
2018-08-09T04:53:10.578Z,18.3
2018-08-09T04:54:12.975Z,18.3
2018-08-09T04:55:15.067Z,18.3
2018-08-09T04:56:17.167Z,18.4
2018-08-09T04:57:19.250Z,18.4
2018-08-09T04:58:22.123Z,18.4
2018-08-09T04:59:24.221Z,18.4
2018-08-09T05:00:26.311Z,18.4
2018-08-09T05:01:28.418Z,18.4
2018-08-09T05:02:30.508Z,18.5
2018-08-09T05:03:32.892Z,18.5
2018-08-09T05:04:34.984Z,18.5
2018-08-09T05:05:37.092Z,18.5
2018-08-09T05:06:39.174Z,18.5
2018-08-09T05:07:41.274Z,18.5
2018-08-09T05:08:43.372Z,18.5
2018-08-09T05:09:45.453Z,18.5
2018-08-09T05:10:47.850Z,18.6
2018-08-09T05:11:50.335Z,18.6
2018-08-09T05:12:52.727Z,18.6
2018-08-09T05:13:54.814Z,18.7
2018-08-09T05:14:57.205Z,18.7
2018-08-09T05:15:59.348Z,18.7
2018-08-09T05:17:02.167Z,18.8
2018-08-09T05:18:04.661Z,18.8
2018-08-09T05:19:06.748Z,18.8
2018-08-09T05:20:08.850Z,18.8
2018-08-09T05:21:10.951Z,18.8
2018-08-09T05:22:13.348Z,18.8
2018-08-09T05:23:15.487Z,18.8
2018-08-09T05:24:17.534Z,18.8
2018-08-09T05:25:19.623Z,18.9
2018-08-09T05:26:21.756Z,18.9
2018-08-09T05:27:23.830Z,19
2018-08-09T05:28:25.926Z,19
2018-08-09T05:29:28.300Z,19.1
2018-08-09T05:30:30.405Z,19.1
2018-08-09T05:31:32.496Z,19.1
2018-08-09T05:32:34.586Z,19.2
2018-08-09T05:33:36.680Z,19.3
2018-08-09T05:34:38.767Z,19.4
2018-08-09T05:35:40.874Z,19.4
2018-08-09T05:36:43.259Z,19.5
2018-08-09T05:37:46.043Z,19.5
2018-08-09T05:38:48.128Z,19.7
2018-08-09T05:39:50.520Z,19.8
2018-08-09T05:40:52.619Z,19.8
2018-08-09T05:41:54.710Z,19.9
2018-08-09T05:42:57.497Z,19.9
2018-08-09T05:43:59.584Z,20
2018-08-09T05:45:01.680Z,20.1
2018-08-09T05:46:03.774Z,20.2
2018-08-09T05:47:05.882Z,20.3
2018-08-09T05:48:07.966Z,20.4
2018-08-09T05:49:10.069Z,20.5
2018-08-09T05:50:12.168Z,20.5
2018-08-09T05:51:14.281Z,20.6
2018-08-09T05:52:16.361Z,20.6
2018-08-09T05:53:18.533Z,20.7
2018-08-09T05:54:20.944Z,20.7
2018-08-09T05:55:23.430Z,20.8
2018-08-09T05:56:25.539Z,20.8
2018-08-09T05:57:27.636Z,20.9
2018-08-09T05:58:30.229Z,20.9
2018-08-09T05:59:32.270Z,21
2018-08-09T06:00:34.360Z,21.2
2018-08-09T06:01:36.464Z,21.2
2018-08-09T06:02:38.570Z,21.3
2018-08-09T06:03:40.658Z,21.4
2018-08-09T06:04:42.758Z,21.5
2018-08-09T06:05:45.441Z,21.5
2018-08-09T06:06:47.727Z,21.6
2018-08-09T06:07:49.834Z,21.6
2018-08-09T06:08:51.926Z,21.5
2018-08-09T06:09:54.028Z,21.4
2018-08-09T06:10:56.114Z,21.4
2018-08-09T06:11:58.216Z,21.4
2018-08-09T06:13:00.714Z,21.5
2018-08-09T06:14:02.813Z,21.5
2018-08-09T06:15:04.909Z,21.5
2018-08-09T06:16:07.310Z,21.5
2018-08-09T06:17:09.398Z,21.5
2018-08-09T06:18:11.502Z,21.6
2018-08-09T06:19:13.595Z,21.6
2018-08-09T06:20:15.712Z,21.6
2018-08-09T06:21:17.799Z,21.7
2018-08-09T06:22:20.188Z,21.7
2018-08-09T06:23:22.290Z,21.7
2018-08-09T06:24:24.381Z,21.8
2018-08-09T06:25:26.485Z,21.9
2018-08-09T06:26:29.196Z,21.8
2018-08-09T06:27:31.155Z,21.8
2018-08-09T06:28:33.579Z,21.9
2018-08-09T06:29:35.668Z,22
2018-08-09T06:30:37.761Z,22
2018-08-09T06:31:39.869Z,22
2018-08-09T06:32:42.643Z,22
2018-08-09T06:33:44.730Z,22
2018-08-09T06:34:46.828Z,22.1
2018-08-09T06:35:48.936Z,22.1
2018-08-09T06:36:51.028Z,22.1
2018-08-09T06:37:53.138Z,22.1
2018-08-09T06:38:55.239Z,22.1
2018-08-09T06:39:57.336Z,22
2018-08-09T06:40:59.456Z,22.1
2018-08-09T06:42:01.839Z,22.2
2018-08-09T06:43:04.258Z,22.3
2018-08-09T06:44:06.640Z,22.3
2018-08-09T06:45:09.330Z,22.3
2018-08-09T06:46:11.421Z,22.4
2018-08-09T06:47:13.524Z,22.3
2018-08-09T06:48:15.624Z,22.3
2018-08-09T06:49:17.724Z,22.5
2018-08-09T06:50:19.815Z,22.5
2018-08-09T06:51:21.919Z,22.5
2018-08-09T06:52:24.302Z,22.6
2018-08-09T06:53:26.415Z,22.6
2018-08-09T06:54:28.505Z,22.6
2018-08-09T06:55:30.608Z,22.7
2018-08-09T06:56:32.714Z,22.7
2018-08-09T06:57:35.189Z,22.7
2018-08-09T06:58:37.301Z,22.7
2018-08-09T06:59:39.409Z,22.7
2018-08-09T07:00:41.504Z,22.9
2018-08-09T07:01:43.891Z,22.9
2018-08-09T07:02:46.003Z,23
2018-08-09T07:03:48.106Z,23
2018-08-09T07:04:50.225Z,23
2018-08-09T07:05:52.329Z,23.1
2018-08-09T07:06:54.484Z,23.2
2018-08-09T07:07:56.522Z,23.1
2018-08-09T07:08:58.677Z,23.1
2018-08-09T07:10:00.768Z,23.1
2018-08-09T07:11:02.879Z,23.1
2018-08-09T07:12:04.989Z,23.1
2018-08-09T07:13:07.083Z,23.1
2018-08-09T07:14:09.197Z,23
2018-08-09T07:15:11.680Z,23.1
2018-08-09T07:16:13.782Z,23
2018-08-09T07:17:15.873Z,23.1
2018-08-09T07:18:18.601Z,23.1
2018-08-09T07:19:21.080Z,23.1
2018-08-09T07:20:23.279Z,23.1
2018-08-09T07:21:25.287Z,23.1
2018-08-09T07:22:28.056Z,23.2
2018-08-09T07:23:30.456Z,23.3
2018-08-09T07:24:32.556Z,23.4
2018-08-09T07:25:34.668Z,23.4
2018-08-09T07:26:36.756Z,23.4
2018-08-09T07:27:38.866Z,23.5
2018-08-09T07:28:40.967Z,23.6
2018-08-09T07:29:43.078Z,23.6
2018-08-09T07:30:45.163Z,23.7
2018-08-09T07:31:47.673Z,23.8
2018-08-09T07:32:49.777Z,23.8
2018-08-09T07:33:52.475Z,23.7
2018-08-09T07:34:54.471Z,23.8
2018-08-09T07:35:56.881Z,23.9
2018-08-09T07:36:58.981Z,23.9
2018-08-09T07:38:01.100Z,23.9
2018-08-09T07:39:03.597Z,24.1
2018-08-09T07:40:05.691Z,24.1
2018-08-09T07:41:07.793Z,24.2
2018-08-09T07:42:09.906Z,24.2
2018-08-09T07:43:11.994Z,24.2
2018-08-09T07:44:14.124Z,24.1
2018-08-09T07:45:16.228Z,24.2
2018-08-09T07:46:18.326Z,24.2
2018-08-09T07:47:20.452Z,24.4
2018-08-09T07:48:22.884Z,24.5
2018-08-09T07:49:25.250Z,24.6
2018-08-09T07:50:27.345Z,24.6
2018-08-09T07:51:29.751Z,24.4
2018-08-09T07:52:31.840Z,24.5
2018-08-09T07:53:33.946Z,24.5
2018-08-09T07:54:36.052Z,24.7
2018-08-09T07:55:38.425Z,24.8
2018-08-09T07:56:40.539Z,24.8
2018-08-09T07:57:43.028Z,24.8
2018-08-09T07:58:45.136Z,25
2018-08-09T07:59:47.226Z,25.1
2018-08-09T08:00:49.402Z,25.2
2018-08-09T08:01:51.447Z,25.2
2018-08-09T08:02:53.545Z,25.2
2018-08-09T08:03:56.055Z,25.2
2018-08-09T08:04:58.152Z,25.3
2018-08-09T08:06:00.270Z,25.3
2018-08-09T08:07:02.369Z,25
2018-08-09T08:08:04.478Z,25.2
2018-08-09T08:09:06.573Z,25.2
2018-08-09T08:10:08.682Z,25.3
2018-08-09T08:11:10.783Z,25.4
2018-08-09T08:12:12.890Z,25.5
2018-08-09T08:13:15.004Z,25.5
2018-08-09T08:14:17.108Z,25.6
2018-08-09T08:15:19.504Z,25.5
2018-08-09T08:16:21.624Z,25.6
2018-08-09T08:17:23.722Z,25.7
2018-08-09T08:18:25.828Z,25.9
2018-08-09T08:19:27.937Z,25.9
2018-08-09T08:20:30.321Z,26
2018-08-09T08:21:32.440Z,26.2
2018-08-09T08:22:34.922Z,26.3
2018-08-09T08:23:37.345Z,26.3
2018-08-09T08:24:39.440Z,26.5
2018-08-09T08:25:41.555Z,26.5
2018-08-09T08:26:43.670Z,26.7
2018-08-09T08:27:45.763Z,26.8
2018-08-09T08:28:47.880Z,26.9
2018-08-09T08:29:49.974Z,27
2018-08-09T08:30:52.081Z,26.9
2018-08-09T08:31:54.181Z,27
2018-08-09T08:32:56.298Z,27.1
2018-08-09T08:33:58.393Z,27.1
2018-08-09T08:35:01.214Z,27.3
2018-08-09T08:36:03.320Z,27.2
2018-08-09T08:37:05.414Z,27
2018-08-09T08:38:07.533Z,26.9
2018-08-09T08:39:09.635Z,27
2018-08-09T08:40:11.735Z,26.9
2018-08-09T08:41:13.843Z,27
2018-08-09T08:42:16.278Z,27.7
2018-08-09T08:43:18.377Z,28
2018-08-09T08:44:20.761Z,27.9
2018-08-09T08:45:23.259Z,28.1
2018-08-09T08:46:25.377Z,27.8
2018-08-09T08:47:27.492Z,27.7
2018-08-09T08:48:29.583Z,27.6
2018-08-09T08:49:31.703Z,28
2018-08-09T08:50:33.806Z,28.1
2018-08-09T08:51:35.912Z,27.5
2018-08-09T08:52:38.025Z,28.1
2018-08-09T08:53:40.121Z,28.5
2018-08-09T08:54:42.237Z,28.4
2018-08-09T08:55:44.344Z,28.4
2018-08-09T08:56:46.457Z,28
2018-08-09T08:57:48.556Z,28.4
2018-08-09T08:58:50.669Z,28.5
2018-08-09T08:59:52.774Z,28.4
2018-08-09T09:00:55.284Z,28
2018-08-09T09:01:57.349Z,27.9
2018-08-09T09:02:59.444Z,28.4
2018-08-09T09:04:01.859Z,28.4
2018-08-09T09:05:04.695Z,28.6
2018-08-09T09:06:06.757Z,28.6
2018-08-09T09:07:08.889Z,28.6
2018-08-09T09:08:10.969Z,28.4
2018-08-09T09:09:13.083Z,28.7
2018-08-09T09:10:15.179Z,28.6
2018-08-09T09:11:17.299Z,28.6
2018-08-09T09:12:19.404Z,28.6
2018-08-09T09:13:21.505Z,28.7
2018-08-09T09:14:23.616Z,29
2018-08-09T09:15:26.033Z,29
2018-08-09T09:16:28.141Z,29
2018-08-09T09:17:30.252Z,29.1
2018-08-09T09:18:32.360Z,29.2
2018-08-09T09:19:34.462Z,28.9
2018-08-09T09:20:36.574Z,29.1
2018-08-09T09:21:39.077Z,29.1
2018-08-09T09:22:41.209Z,29.5
2018-08-09T09:23:43.604Z,29.6
2018-08-09T09:24:46.285Z,29.3
2018-08-09T09:25:48.401Z,29.2
2018-08-09T09:26:50.798Z,29.7
2018-08-09T09:27:52.905Z,29.5
2018-08-09T09:28:55.017Z,29.5
2018-08-09T09:29:57.136Z,29.2
2018-08-09T09:30:59.240Z,29.3
2018-08-09T09:32:01.354Z,29.8
2018-08-09T09:33:03.471Z,29.9
2018-08-09T09:34:05.575Z,30
2018-08-09T09:35:07.758Z,29.9
2018-08-09T09:36:09.798Z,29.5
2018-08-09T09:37:11.911Z,29.4
2018-08-09T09:38:14.019Z,30
2018-08-09T09:39:16.146Z,30
2018-08-09T09:40:18.249Z,30
2018-08-09T09:41:20.704Z,30
2018-08-09T09:42:22.799Z,30.2
2018-08-09T09:43:24.906Z,30.4
2018-08-09T09:44:27.029Z,30.6
2018-08-09T09:45:29.141Z,30.6
2018-08-09T09:46:31.256Z,30.6
2018-08-09T09:47:33.646Z,30.9
2018-08-09T09:48:35.769Z,30.8
2018-08-09T09:49:38.304Z,30.6
2018-08-09T09:50:40.415Z,30.4
2018-08-09T09:51:42.838Z,30.6
2018-08-09T09:52:44.947Z,30.1
2018-08-09T09:53:47.366Z,30.6
2018-08-09T09:54:49.916Z,31
2018-08-09T09:55:52.008Z,30.8
2018-08-09T09:56:55.101Z,30.7
2018-08-09T09:57:57.221Z,30.6
2018-08-09T09:58:59.652Z,30.9
2018-08-09T10:00:01.762Z,30.5
2018-08-09T10:01:04.269Z,30.7
2018-08-09T10:02:06.400Z,30.8
2018-08-09T10:03:08.508Z,30.8
2018-08-09T10:04:10.609Z,30.1
2018-08-09T10:05:12.737Z,30.8
2018-08-09T10:06:14.853Z,30.9
2018-08-09T10:07:17.080Z,31.2
2018-08-09T10:08:19.092Z,31.3
2018-08-09T10:09:21.195Z,31
2018-08-09T10:10:23.737Z,31.3
2018-08-09T10:11:26.140Z,31.5
2018-08-09T10:12:28.268Z,31.5
2018-08-09T10:13:30.372Z,31.6
2018-08-09T10:14:32.490Z,31.9
2018-08-09T10:15:34.611Z,31.8
2018-08-09T10:16:36.714Z,31.7
2018-08-09T10:17:38.841Z,31.4
2018-08-09T10:18:40.959Z,30.6
2018-08-09T10:19:43.070Z,31.1
2018-08-09T10:20:45.176Z,31.2
2018-08-09T10:21:47.305Z,31.3
2018-08-09T10:22:49.809Z,31.1
2018-08-09T10:23:52.905Z,31.3
2018-08-09T10:24:55.026Z,31.4
2018-08-09T10:25:57.127Z,31
2018-08-09T10:26:59.249Z,31.5
2018-08-09T10:28:01.381Z,31.5
2018-08-09T10:29:03.872Z,31.3
2018-08-09T10:30:05.996Z,30.8
2018-08-09T10:31:08.116Z,31.3
2018-08-09T10:32:10.227Z,31.3
2018-08-09T10:33:12.648Z,31.4
2018-08-09T10:34:14.760Z,31.4
2018-08-09T10:35:16.878Z,32
2018-08-09T10:36:19.372Z,32
2018-08-09T10:37:21.802Z,31.6
2018-08-09T10:38:24.198Z,31.5
2018-08-09T10:39:26.316Z,31.9
2018-08-09T10:40:28.441Z,31.8
2018-08-09T10:41:30.841Z,31.8
2018-08-09T10:42:32.972Z,31.2
2018-08-09T10:43:35.091Z,31.3
2018-08-09T10:44:37.610Z,31.4
2018-08-09T10:45:39.715Z,31.2
2018-08-09T10:46:42.134Z,31.4
2018-08-09T10:47:44.634Z,31.3
2018-08-09T10:48:46.753Z,31.7
2018-08-09T10:49:49.174Z,31.9
2018-08-09T10:50:51.671Z,31.6
2018-08-09T10:51:54.074Z,31.9
2018-08-09T10:52:56.197Z,31.9
2018-08-09T10:53:58.321Z,32.1
2018-08-09T10:55:00.435Z,32.7
2018-08-09T10:56:02.557Z,32.5
2018-08-09T10:57:04.672Z,32.1
2018-08-09T10:58:06.792Z,32
2018-08-09T10:59:09.207Z,31.9
2018-08-09T11:00:11.635Z,32.3
2018-08-09T11:01:13.748Z,32.3
2018-08-09T11:02:15.880Z,31.9
2018-08-09T11:03:17.991Z,32
2018-08-09T11:04:20.106Z,31.8
2018-08-09T11:05:22.230Z,31.7
2018-08-09T11:06:24.358Z,31.8
2018-08-09T11:07:26.481Z,32.2
2018-08-09T11:08:29.284Z,33.1
2018-08-09T11:09:31.413Z,32.3
2018-08-09T11:10:33.803Z,32.1
2018-08-09T11:11:35.933Z,32.3
2018-08-09T11:12:38.052Z,32.6
2018-08-09T11:13:40.174Z,33
2018-08-09T11:14:42.291Z,32.8
2018-08-09T11:15:44.422Z,32.8
2018-08-09T11:16:46.543Z,32.8
2018-08-09T11:17:48.663Z,32.7
2018-08-09T11:18:50.767Z,33.2
2018-08-09T11:19:52.896Z,32.8
2018-08-09T11:20:55.015Z,32.8
2018-08-09T11:21:57.132Z,32.1
2018-08-09T11:22:59.258Z,32.5
2018-08-09T11:24:01.373Z,33.2
2018-08-09T11:25:03.491Z,33.3
2018-08-09T11:26:06.009Z,33.2
2018-08-09T11:27:08.129Z,32.8
2018-08-09T11:28:10.251Z,32.9
2018-08-09T11:29:12.377Z,33.1
2018-08-09T11:30:14.497Z,33.3
2018-08-09T11:31:16.907Z,33.6
2018-08-09T11:32:19.349Z,33.4
2018-08-09T11:33:21.471Z,33.1
2018-08-09T11:34:23.581Z,33
2018-08-09T11:35:25.712Z,33.2
2018-08-09T11:36:27.825Z,32.9
2018-08-09T11:37:29.937Z,32.6
2018-08-09T11:38:32.069Z,33
2018-08-09T11:39:34.458Z,33
2018-08-09T11:40:36.589Z,32.3
2018-08-09T11:41:38.730Z,32.7
2018-08-09T11:42:40.858Z,32.5
2018-08-09T11:43:42.965Z,32.2
2018-08-09T11:44:45.108Z,32
2018-08-09T11:45:47.232Z,31.8
2018-08-09T11:46:49.732Z,31.6
2018-08-09T11:47:51.867Z,31.5
2018-08-09T11:48:54.011Z,31.7
2018-08-09T11:49:56.124Z,31.8
2018-08-09T11:50:58.236Z,31.6
2018-08-09T11:52:00.367Z,31.6
2018-08-09T11:53:02.474Z,31.4
2018-08-09T11:54:04.640Z,31.6
2018-08-09T11:55:06.748Z,31.9
2018-08-09T11:56:08.961Z,32.3
2018-08-09T11:57:11.535Z,32
2018-08-09T11:58:13.657Z,32
2018-08-09T11:59:15.781Z,31.6
2018-08-09T12:00:18.196Z,31.3
2018-08-09T12:01:20.322Z,31.4
2018-08-09T12:02:22.436Z,31.5
2018-08-09T12:03:24.997Z,31.4
2018-08-09T12:04:27.364Z,31.3
2018-08-09T12:05:29.495Z,31.1
2018-08-09T12:06:31.920Z,31.1
2018-08-09T12:07:34.446Z,30.7
2018-08-09T12:08:36.872Z,30.8
2018-08-09T12:09:39.312Z,31.1
2018-08-09T12:10:41.425Z,31
2018-08-09T12:11:43.544Z,30.7
2018-08-09T12:12:45.649Z,30.9
2018-08-09T12:13:48.372Z,31
2018-08-09T12:14:50.817Z,31.2
2018-08-09T12:15:52.928Z,31.1
2018-08-09T12:16:55.033Z,31.1
2018-08-09T12:17:57.160Z,31
2018-08-09T12:18:59.276Z,31.5
2018-08-09T12:20:01.683Z,31.8
2018-08-09T12:21:03.861Z,31.9
2018-08-09T12:22:05.930Z,32.2
2018-08-09T12:23:08.046Z,32.8
2018-08-09T12:24:10.169Z,32.5
2018-08-09T12:25:12.623Z,32.6
2018-08-09T12:26:15.019Z,32.6
2018-08-09T12:27:17.141Z,32.2
2018-08-09T12:28:19.269Z,32.2
2018-08-09T12:29:21.396Z,31.9
2018-08-09T12:30:23.578Z,31.5
2018-08-09T12:31:25.638Z,31.4
2018-08-09T12:32:28.141Z,31.5
2018-08-09T12:33:30.556Z,31.6
2018-08-09T12:34:32.666Z,31.7
2018-08-09T12:35:34.786Z,31.9
2018-08-09T12:36:36.952Z,32.2
2018-08-09T12:37:39.018Z,32.4
2018-08-09T12:38:41.151Z,33
2018-08-09T12:39:43.266Z,33.3
2018-08-09T12:40:45.672Z,32.9
2018-08-09T12:41:47.808Z,32.9
2018-08-09T12:42:50.233Z,32.8
2018-08-09T12:43:52.352Z,33.1
2018-08-09T12:44:54.474Z,32.9
2018-08-09T12:45:56.579Z,33
2018-08-09T12:46:58.707Z,33.5
2018-08-09T12:48:00.826Z,33.5
2018-08-09T12:49:03.554Z,33.3
2018-08-09T12:50:06.046Z,33
2018-08-09T12:51:08.460Z,33
2018-08-09T12:52:10.578Z,32.4
2018-08-09T12:53:12.722Z,32.5
2018-08-09T12:54:14.831Z,32.3
2018-08-09T12:55:16.934Z,32.2
2018-08-09T12:56:19.338Z,32
2018-08-09T12:57:21.443Z,32.1
2018-08-09T12:58:23.570Z,31.8
2018-08-09T12:59:25.684Z,31.9
2018-08-09T13:00:27.801Z,32.1
2018-08-09T13:01:29.925Z,32.4
2018-08-09T13:02:32.030Z,32.5
2018-08-09T13:03:34.151Z,32.2
2018-08-09T13:04:36.271Z,32.2
2018-08-09T13:05:38.382Z,32.2
2018-08-09T13:06:40.495Z,32.2
2018-08-09T13:07:42.912Z,32.3
2018-08-09T13:08:45.025Z,32.4
2018-08-09T13:09:47.147Z,32.1
2018-08-09T13:10:49.259Z,32.4
2018-08-09T13:11:51.364Z,32.2
2018-08-09T13:12:53.482Z,32.6
2018-08-09T13:13:55.612Z,32.9
2018-08-09T13:14:57.715Z,33
2018-08-09T13:15:59.840Z,33.1
2018-08-09T13:17:02.018Z,32.8
2018-08-09T13:18:04.861Z,32.4
2018-08-09T13:19:06.993Z,32.5
2018-08-09T13:20:09.106Z,32.5
2018-08-09T13:21:11.226Z,32.4
2018-08-09T13:22:13.332Z,32.5
2018-08-09T13:23:15.458Z,32.4
2018-08-09T13:24:17.561Z,32.7
2018-08-09T13:25:19.679Z,32.6
2018-08-09T13:26:21.798Z,32.3
2018-08-09T13:27:23.900Z,32.1
2018-08-09T13:28:26.034Z,32.3
2018-08-09T13:29:28.153Z,32.5
2018-08-09T13:30:30.661Z,32.8
2018-08-09T13:31:32.760Z,33
2018-08-09T13:32:34.886Z,33.5
2018-08-09T13:33:37.076Z,33.5
2018-08-09T13:34:39.114Z,33.3
2018-08-09T13:35:41.242Z,33.3
2018-08-09T13:36:43.347Z,33.3
2018-08-09T13:37:45.758Z,33.4
2018-08-09T13:38:47.881Z,33.3
2018-08-09T13:39:49.995Z,33.5
2018-08-09T13:40:52.099Z,33.2
2018-08-09T13:41:54.221Z,33.3
2018-08-09T13:42:56.336Z,33.8
2018-08-09T13:43:58.453Z,34
2018-08-09T13:45:00.583Z,33.9
2018-08-09T13:46:02.992Z,33.9
2018-08-09T13:47:05.116Z,34
2018-08-09T13:48:07.214Z,33.5
2018-08-09T13:49:09.338Z,33.4
2018-08-09T13:50:11.771Z,33.3
2018-08-09T13:51:14.169Z,33.5
2018-08-09T13:52:16.298Z,33.5
2018-08-09T13:53:18.416Z,33.6
2018-08-09T13:54:20.536Z,33.6